Time;durP1;ratioP1;P1;durP2;ratioP2;P2;SDS_P1;SDS_P2;PMS_P1;PMS_P2;Temp;Humidity;BMP_temperature;BMP_pressure;BME280_temperature;BME280_humidity;BME280_pressure;Samples;Min_cycle;Max_cycle;Signal;HPM_P1;HPM_P2
2022/02/17 00:02:09;;;;;;;2.10;1.67;;;25.60;62.00;;;;;;5075345;28;20437;-84
2022/02/17 00:04:36;;;;;;;1.97;1.47;;;25.60;62.00;;;;;;5075076;28;20494;-91
2022/02/17 00:07:03;;;;;;;2.10;1.37;;;25.60;62.00;;;;;;5074950;28;20436;-91
2022/02/17 00:09:30;;;;;;;3.30;1.43;;;25.50;61.90;;;;;;5074625;28;20855;-84
2022/02/17 00:11:57;;;;;;;2.00;1.40;;;25.60;61.90;;;;;;5074842;28;20451;-84
2022/02/17 00:14:23;;;;;;;1.53;1.20;;;25.50;61.90;;;;;;5074975;28;20440;-92
2022/02/17 00:16:52;;;;;;;2.53;1.80;;;25.60;62.00;;;;;;5074561;28;20522;-92
2022/02/17 00:19:20;;;;;;;1.77;1.10;;;25.60;61.90;;;;;;5074793;28;20497;-92
2022/02/17 00:21:47;;;;;;;1.50;1.40;;;25.50;61.80;;;;;;5074775;28;20433;-89
2022/02/17 00:24:14;;;;;;;2.63;1.30;;;25.50;61.80;;;;;;5074588;28;20444;-84
2022/02/17 00:26:41;;;;;;;1.93;1.50;;;25.50;61.90;;;;;;5074527;28;20770;-84
2022/02/17 00:29:08;;;;;;;1.80;1.10;;;25.50;61.80;;;;;;5074388;28;20485;-83
2022/02/17 00:31:35;;;;;;;1.80;1.33;;;25.50;61.80;;;;;;5074393;28;20441;-83
2022/02/17 00:34:02;;;;;;;2.73;1.23;;;25.50;61.90;;;;;;5074636;28;20451;-90
2022/02/17 00:36:30;;;;;;;1.70;1.30;;;25.50;61.80;;;;;;5074135;28;20437;-83
2022/02/17 00:38:57;;;;;;;1.40;1.30;;;25.50;61.80;;;;;;5074253;28;20445;-82
2022/02/17 00:41:24;;;;;;;1.80;1.20;;;25.50;61.90;;;;;;5074305;28;20448;-91
2022/02/17 00:43:51;;;;;;;2.03;1.30;;;25.50;61.80;;;;;;5074280;28;20502;-91
2022/02/17 00:46:18;;;;;;;1.30;0.97;;;25.50;61.80;;;;;;5074365;28;20437;-90
2022/02/17 00:48:45;;;;;;;6.13;1.93;;;25.60;61.80;;;;;;5073812;28;20447;-91
2022/02/17 00:51:12;;;;;;;1.60;1.10;;;25.50;61.80;;;;;;5074184;28;20463;-83
2022/02/17 00:53:41;;;;;;;1.37;1.10;;;25.50;61.80;;;;;;5074393;28;20563;-83
2022/02/17 00:56:08;;;;;;;2.23;1.00;;;25.50;61.80;;;;;;5073816;28;20452;-83
2022/02/17 00:58:35;;;;;;;1.47;1.10;;;25.50;61.70;;;;;;5073990;28;20436;-90
2022/02/17 01:01:02;;;;;;;1.37;1.00;;;25.40;61.80;;;;;;5073822;28;20935;-89
2022/02/17 01:03:29;;;;;;;1.60;1.27;;;25.40;61.80;;;;;;5073903;28;20445;-83
2022/02/17 01:05:56;;;;;;;2.70;1.10;;;25.40;61.70;;;;;;5073328;28;20441;-89
2022/02/17 01:08:22;;;;;;;2.00;1.07;;;25.40;61.80;;;;;;5074066;28;20448;-83
2022/02/17 01:10:51;;;;;;;3.20;1.57;;;25.40;61.80;;;;;;5073738;28;20484;-89
2022/02/17 01:13:17;;;;;;;1.60;1.10;;;25.40;61.80;;;;;;5073767;28;20446;-88
2022/02/17 01:15:44;;;;;;;1.93;0.83;;;25.50;61.90;;;;;;5073600;28;20806;-83
2022/02/17 01:18:11;;;;;;;2.37;1.17;;;25.40;61.70;;;;;;5073447;28;20476;-90
2022/02/17 01:20:38;;;;;;;2.50;1.10;;;25.40;61.70;;;;;;5073579;28;20547;-83
2022/02/17 01:23:04;;;;;;;2.03;1.07;;;25.40;61.60;;;;;;5073583;28;20445;-90
2022/02/17 01:25:31;;;;;;;1.30;1.10;;;25.40;61.80;;;;;;5073836;28;20444;-92
2022/02/17 01:27:59;;;;;;;1.87;1.20;;;25.30;61.70;;;;;;5073358;28;20437;-83
2022/02/17 01:30:26;;;;;;;2.33;1.30;;;25.30;61.70;;;;;;5073333;28;21021;-90
2022/02/17 01:32:53;;;;;;;1.10;0.90;;;25.30;61.80;;;;;;5073276;28;20920;-83
2022/02/17 01:35:20;;;;;;;1.50;0.90;;;25.30;61.80;;;;;;5073215;28;20448;-89
2022/02/17 01:37:46;;;;;;;1.87;1.10;;;25.20;61.80;;;;;;5073450;28;20448;-82
2022/02/17 01:40:14;;;;;;;1.63;1.23;;;25.20;61.70;;;;;;5073329;28;20447;-83
2022/02/17 01:42:41;;;;;;;2.10;0.90;;;25.20;61.80;;;;;;5073387;28;20460;-83
2022/02/17 01:45:10;;;;;;;1.10;0.90;;;25.20;61.80;;;;;;5073105;28;20452;-83
2022/02/17 01:47:37;;;;;;;1.30;0.87;;;25.20;61.80;;;;;;5073311;28;20437;-83
2022/02/17 01:50:05;;;;;;;1.40;1.00;;;25.20;61.80;;;;;;5073311;28;20492;-83
2022/02/17 01:52:32;;;;;;;1.60;1.40;;;25.20;61.80;;;;;;5073197;28;20433;-83
2022/02/17 01:54:59;;;;;;;1.20;0.90;;;25.20;61.80;;;;;;5073229;28;20840;-88
2022/02/17 01:57:30;;;;;;;1.63;1.20;;;25.20;61.90;;;;;;5073218;28;20441;-83
2022/02/17 01:59:57;;;;;;;1.70;1.20;;;25.20;61.90;;;;;;5073338;28;20433;-84
2022/02/17 02:02:26;;;;;;;1.40;1.10;;;25.10;61.80;;;;;;5073495;28;20437;-83
2022/02/17 02:04:53;;;;;;;1.37;0.90;;;25.10;61.80;;;;;;5073252;28;20432;-89
2022/02/17 02:07:20;;;;;;;1.40;1.00;;;25.10;61.80;;;;;;5073161;28;20448;-83
2022/02/17 02:09:47;;;;;;;1.10;0.90;;;25.10;61.80;;;;;;5073110;28;20491;-85
2022/02/17 02:12:14;;;;;;;1.47;0.90;;;25.10;61.70;;;;;;5073492;28;20433;-83
2022/02/17 02:14:50;;;;;;;1.67;1.20;;;25.10;61.80;;;;;;5073364;28;20447;-82
2022/02/17 02:17:20;;;;;;;1.20;0.90;;;25.10;61.70;;;;;;5072833;28;20481;-85
2022/02/17 02:19:49;;;;;;;1.37;0.80;;;25.10;61.80;;;;;;5076199;28;20465;-84
2022/02/17 02:22:17;;;;;;;1.20;0.80;;;25.10;61.90;;;;;;5077052;28;20961;-83
2022/02/17 02:24:43;;;;;;;1.20;0.90;;;25.00;61.80;;;;;;5076863;28;20460;-83
2022/02/17 02:27:14;;;;;;;1.27;1.07;;;25.00;61.80;;;;;;5076940;28;20787;-83
2022/02/17 02:29:41;;;;;;;1.37;1.10;;;25.00;61.90;;;;;;5076944;28;20823;-83
2022/02/17 02:32:09;;;;;;;1.50;1.10;;;25.00;61.80;;;;;;5076915;28;20437;-83
2022/02/17 02:34:37;;;;;;;1.40;1.07;;;25.00;61.90;;;;;;5076459;28;20946;-83
2022/02/17 02:37:05;;;;;;;1.20;0.90;;;25.00;61.90;;;;;;5076619;28;20951;-89
2022/02/17 02:39:34;;;;;;;2.53;1.40;;;25.00;61.90;;;;;;5076492;28;20445;-83
2022/02/17 02:42:01;;;;;;;1.43;0.90;;;25.10;61.90;;;;;;5076591;28;20437;-89
2022/02/17 02:44:28;;;;;;;1.43;1.00;;;25.00;61.90;;;;;;5076731;28;20444;-84
2022/02/17 02:46:55;;;;;;;1.30;0.97;;;24.90;61.90;;;;;;5076853;28;20443;-90
2022/02/17 02:49:22;;;;;;;1.30;0.97;;;25.00;61.90;;;;;;5076615;28;20457;-90
2022/02/17 02:51:49;;;;;;;10.53;1.60;;;24.90;61.90;;;;;;5076582;28;20433;-83
2022/02/17 02:54:16;;;;;;;1.20;1.03;;;25.00;61.90;;;;;;5076364;28;20448;-83
2022/02/17 02:56:44;;;;;;;1.10;1.00;;;25.00;61.90;;;;;;5076301;28;20444;-83
2022/02/17 02:59:11;;;;;;;2.13;1.10;;;24.90;61.90;;;;;;5076095;28;20441;-83
2022/02/17 03:01:38;;;;;;;1.30;1.00;;;24.90;61.90;;;;;;5076364;28;20433;-83
2022/02/17 03:04:05;;;;;;;2.03;1.10;;;24.80;62.00;;;;;;5076168;28;20448;-90
2022/02/17 03:06:32;;;;;;;1.43;1.10;;;24.90;62.00;;;;;;5075943;28;20451;-83
2022/02/17 03:08:59;;;;;;;1.30;1.03;;;24.80;61.90;;;;;;5076302;28;20441;-89
2022/02/17 03:11:26;;;;;;;3.10;1.23;;;24.90;61.90;;;;;;5076008;28;20484;-83
2022/02/17 03:13:55;;;;;;;1.30;0.87;;;24.80;61.90;;;;;;5075775;28;20460;-91
2022/02/17 03:16:23;;;;;;;1.23;0.87;;;24.80;61.90;;;;;;5075916;28;20845;-90
2022/02/17 03:18:50;;;;;;;1.70;1.10;;;24.80;61.80;;;;;;5075509;28;20484;-83
2022/02/17 03:21:17;;;;;;;1.60;0.97;;;24.80;61.80;;;;;;5075976;28;20447;-86
2022/02/17 03:23:44;;;;;;;1.70;1.00;;;24.80;61.80;;;;;;5075843;28;20806;-84
2022/02/17 03:26:11;;;;;;;1.20;0.90;;;24.80;61.80;;;;;;5075927;28;20437;-84
2022/02/17 03:28:37;;;;;;;1.53;1.10;;;24.80;61.80;;;;;;5075651;28;20449;-84
2022/02/17 03:31:05;;;;;;;1.50;1.20;;;24.80;61.80;;;;;;5075517;28;20857;-84
2022/02/17 03:33:32;;;;;;;1.20;0.90;;;25.00;62.00;;;;;;5075808;28;20437;-84
2022/02/17 03:35:59;;;;;;;2.10;1.10;;;24.80;61.80;;;;;;5075501;28;20958;-90
2022/02/17 03:38:26;;;;;;;2.30;1.20;;;24.80;61.80;;;;;;5075610;28;20451;-84
2022/02/17 03:40:53;;;;;;;1.63;1.10;;;24.90;62.00;;;;;;5075387;28;20440;-84
2022/02/17 03:43:19;;;;;;;1.67;1.20;;;24.80;61.90;;;;;;5075446;28;20447;-87
2022/02/17 03:45:47;;;;;;;1.60;0.90;;;24.80;61.90;;;;;;5075254;28;20437;-84
2022/02/17 03:48:15;;;;;;;1.63;1.10;;;24.80;61.90;;;;;;5075812;28;20441;-84
2022/02/17 03:50:42;;;;;;;1.30;0.90;;;24.80;62.00;;;;;;5075198;28;20488;-83
2022/02/17 03:53:09;;;;;;;1.20;0.97;;;24.80;61.80;;;;;;5075605;28;20449;-84
2022/02/17 03:55:36;;;;;;;1.20;0.87;;;24.80;61.80;;;;;;5075397;28;20445;-84
2022/02/17 03:58:03;;;;;;;1.40;1.00;;;24.80;61.80;;;;;;5075273;28;20444;-90
2022/02/17 04:00:30;;;;;;;1.20;1.00;;;24.80;61.80;;;;;;5075267;28;20932;-84
2022/02/17 04:02:57;;;;;;;1.40;0.90;;;24.80;61.80;;;;;;5075275;28;20445;-84
2022/02/17 04:05:25;;;;;;;1.70;0.90;;;24.70;61.70;;;;;;5074845;28;20452;-84
2022/02/17 04:07:52;;;;;;;1.83;0.90;;;24.70;61.70;;;;;;5074906;28;20436;-84
2022/02/17 04:10:18;;;;;;;1.60;1.30;;;24.80;61.70;;;;;;5074985;28;20499;-84
2022/02/17 04:12:45;;;;;;;1.37;0.80;;;24.70;61.60;;;;;;5074892;28;20432;-84
2022/02/17 04:15:12;;;;;;;1.50;0.93;;;24.70;61.70;;;;;;5074743;28;20452;-84
2022/02/17 04:17:39;;;;;;;1.90;1.10;;;24.70;61.70;;;;;;5074747;28;20469;-90
2022/02/17 04:20:07;;;;;;;1.80;1.17;;;24.70;61.60;;;;;;5074561;28;20793;-90
2022/02/17 04:22:35;;;;;;;1.50;1.10;;;24.70;61.60;;;;;;5075130;28;20463;-83
2022/02/17 04:25:02;;;;;;;1.63;0.93;;;24.70;61.70;;;;;;5074617;28;20433;-84
2022/02/17 04:27:29;;;;;;;1.37;0.87;;;24.70;61.70;;;;;;5074562;28;20459;-83
2022/02/17 04:29:56;;;;;;;1.17;0.80;;;24.70;61.60;;;;;;5074292;28;20444;-83
2022/02/17 04:32:22;;;;;;;1.40;1.17;;;24.70;61.70;;;;;;5074559;28;20882;-83
2022/02/17 04:34:49;;;;;;;1.53;1.00;;;24.70;61.60;;;;;;5074338;28;20448;-83
2022/02/17 04:37:16;;;;;;;1.80;0.93;;;24.70;61.50;;;;;;5074410;28;20445;-83
2022/02/17 04:39:44;;;;;;;1.70;1.10;;;24.70;61.60;;;;;;5074207;28;20440;-91
2022/02/17 04:42:19;;;;;;;1.30;1.00;;;24.70;61.60;;;;;;5073450;28;20448;-83
2022/02/17 04:44:47;;;;;;;1.53;0.97;;;24.70;61.70;;;;;;5074044;28;20441;-83
2022/02/17 04:47:14;;;;;;;1.20;0.90;;;24.60;61.50;;;;;;5074366;28;20437;-83
2022/02/17 04:49:42;;;;;;;1.40;0.90;;;24.60;61.50;;;;;;5074181;28;20491;-83
2022/02/17 04:52:09;;;;;;;1.20;0.90;;;24.60;61.40;;;;;;5074233;28;20913;-83
2022/02/17 04:54:36;;;;;;;1.30;0.93;;;24.60;61.50;;;;;;5073983;28;20437;-82
2022/02/17 04:57:05;;;;;;;1.20;0.90;;;24.60;61.50;;;;;;5073976;28;20437;-83
2022/02/17 04:59:32;;;;;;;1.00;0.80;;;24.60;61.40;;;;;;5074150;28;20448;-83
2022/02/17 05:01:59;;;;;;;1.87;1.00;;;24.60;61.50;;;;;;5073905;28;20449;-83
2022/02/17 05:04:26;;;;;;;1.23;1.00;;;24.60;61.50;;;;;;5073788;28;20444;-83
2022/02/17 05:06:53;;;;;;;2.37;1.30;;;24.50;61.40;;;;;;5074045;28;20445;-83
2022/02/17 05:09:20;;;;;;;1.73;1.20;;;24.60;61.50;;;;;;5073736;28;20924;-84
2022/02/17 05:11:47;;;;;;;1.60;1.20;;;24.60;61.50;;;;;;5073624;28;20830;-83
2022/02/17 05:14:15;;;;;;;1.20;0.97;;;24.60;61.50;;;;;;5073848;28;20452;-83
2022/02/17 05:16:42;;;;;;;2.20;1.10;;;24.50;61.40;;;;;;5073340;28;20440;-84
2022/02/17 05:19:09;;;;;;;2.10;1.20;;;24.50;61.40;;;;;;5073779;28;20839;-84
2022/02/17 05:21:35;;;;;;;1.87;1.07;;;24.50;61.40;;;;;;5073809;28;20437;-84
2022/02/17 05:24:02;;;;;;;1.50;1.10;;;24.60;62.30;;;;;;5073952;28;20440;-84
2022/02/17 05:26:29;;;;;;;1.50;1.23;;;24.50;61.30;;;;;;5073849;28;20448;-85
2022/02/17 05:28:56;;;;;;;1.27;0.90;;;24.50;61.30;;;;;;5073552;28;20429;-91
2022/02/17 05:31:24;;;;;;;1.60;1.10;;;24.50;61.30;;;;;;5073557;28;20488;-91
2022/02/17 05:33:50;;;;;;;2.33;1.30;;;24.50;61.30;;;;;;5073377;28;20443;-84
2022/02/17 05:36:17;;;;;;;1.87;1.30;;;24.50;61.30;;;;;;5073576;28;20455;-89
2022/02/17 05:38:44;;;;;;;2.47;1.10;;;24.50;61.30;;;;;;5073334;28;20463;-84
2022/02/17 05:41:11;;;;;;;1.93;1.23;;;24.50;61.30;;;;;;5073363;28;20429;-84
2022/02/17 05:43:38;;;;;;;1.10;0.97;;;24.50;61.30;;;;;;5073372;28;20441;-84
2022/02/17 05:46:05;;;;;;;1.73;1.43;;;24.50;61.30;;;;;;5073235;28;20448;-90
2022/02/17 05:48:33;;;;;;;1.50;1.20;;;24.50;61.20;;;;;;5075545;28;20441;-90
2022/02/17 05:51:00;;;;;;;1.40;1.03;;;24.50;61.20;;;;;;5082840;28;20471;-83
2022/02/17 05:53:27;;;;;;;1.80;1.20;;;24.60;61.30;;;;;;5086883;28;20923;-83
2022/02/17 05:55:55;;;;;;;1.40;1.23;;;24.60;61.30;;;;;;5087580;28;21040;-90
2022/02/17 05:58:22;;;;;;;1.40;1.20;;;24.60;61.20;;;;;;5080240;28;20437;-90
2022/02/17 06:00:48;;;;;;;1.83;1.10;;;24.70;61.20;;;;;;5093040;28;20475;-90
2022/02/17 06:03:15;;;;;;;1.57;1.10;;;24.60;61.00;;;;;;5100106;28;20827;-85
2022/02/17 06:05:43;;;;;;;1.40;0.93;;;24.60;61.00;;;;;;5100159;28;20436;-91
2022/02/17 06:08:10;;;;;;;1.87;1.10;;;24.60;61.10;;;;;;5100187;28;20436;-86
2022/02/17 06:10:37;;;;;;;1.80;1.03;;;24.60;60.90;;;;;;5100163;28;20486;-91
2022/02/17 06:13:04;;;;;;;1.40;0.97;;;24.60;60.90;;;;;;5100353;28;20501;-82
2022/02/17 06:15:32;;;;;;;2.13;1.30;;;24.70;61.00;;;;;;5100004;28;20439;-90
2022/02/17 06:17:59;;;;;;;1.30;0.90;;;24.70;60.90;;;;;;5099680;28;20572;-84
2022/02/17 06:20:26;;;;;;;3.70;1.10;;;24.60;60.80;;;;;;5099998;28;20459;-90
2022/02/17 06:22:54;;;;;;;1.97;1.30;;;24.70;60.90;;;;;;5100751;28;20427;-90
2022/02/17 06:25:21;;;;;;;2.57;1.03;;;24.70;60.90;;;;;;5099975;28;20443;-90
2022/02/17 06:27:49;;;;;;;1.20;1.00;;;24.70;60.90;;;;;;5090896;28;20424;-83
2022/02/17 06:30:16;;;;;;;1.30;1.00;;;24.70;60.90;;;;;;5083251;28;20436;-83
2022/02/17 06:32:51;;;;;;;1.50;1.00;;;24.70;60.90;;;;;;5079655;28;20447;-91
2022/02/17 06:35:20;;;;;;;1.97;1.27;;;24.70;60.80;;;;;;5079473;28;20507;-84
2022/02/17 06:37:47;;;;;;;1.30;1.17;;;24.70;60.70;;;;;;5079864;28;20443;-84
2022/02/17 06:40:15;;;;;;;2.90;1.57;;;24.70;60.80;;;;;;5080365;28;20976;-84
2022/02/17 06:42:42;;;;;;;1.50;1.10;;;24.70;60.90;;;;;;5080344;28;20444;-84
2022/02/17 06:45:10;;;;;;;2.07;1.37;;;24.70;60.70;;;;;;5079919;28;20436;-84
2022/02/17 06:47:37;;;;;;;1.93;1.20;;;24.70;60.90;;;;;;5084746;28;20428;-90
2022/02/17 06:50:05;;;;;;;3.90;1.40;;;24.60;60.90;;;;;;5100824;28;20469;-84
2022/02/17 06:52:32;;;;;;;2.53;1.00;;;24.70;61.00;;;;;;5099253;28;20841;-85
2022/02/17 06:54:59;;;;;;;5.00;1.90;;;24.70;61.10;;;;;;5099657;28;20452;-85
2022/02/17 06:57:27;;;;;;;4.33;1.50;;;24.70;60.90;;;;;;5099887;28;20801;-84
2022/02/17 06:59:54;;;;;;;2.10;1.30;;;24.70;61.10;;;;;;5100151;28;20431;-95
2022/02/17 07:02:24;;;;;;;5.63;1.20;;;24.70;61.30;;;;;;5100050;28;20458;-90
2022/02/17 07:04:52;;;;;;;2.10;1.43;;;24.70;61.40;;;;;;5096851;28;20438;-89
2022/02/17 07:07:19;;;;;;;3.73;1.47;;;24.70;61.50;;;;;;5096708;28;20440;-83
2022/02/17 07:09:46;;;;;;;6.53;1.47;;;24.70;61.80;;;;;;5096530;28;20444;-90
2022/02/17 07:12:14;;;;;;;2.57;1.50;;;24.80;62.00;;;;;;5096382;28;20971;-83
2022/02/17 07:14:42;;;;;;;5.07;1.97;;;24.70;61.90;;;;;;5096129;28;20440;-89
2022/02/17 07:17:09;;;;;;;4.07;1.87;;;24.70;61.80;;;;;;5096306;28;20538;-85
2022/02/17 07:19:36;;;;;;;2.73;1.50;;;24.80;61.40;;;;;;5096486;28;20459;-85
2022/02/17 07:22:04;;;;;;;4.50;2.07;;;24.80;61.70;;;;;;5096461;28;20444;-85
2022/02/17 07:24:30;;;;;;;6.10;1.63;;;24.80;61.90;;;;;;5092246;28;20433;-86
2022/02/17 07:26:57;;;;;;;3.63;1.87;;;24.80;62.20;;;;;;5090254;28;20801;-84
2022/02/17 07:29:24;;;;;;;4.80;1.13;;;24.80;62.30;;;;;;5079583;28;20462;-93
2022/02/17 07:31:52;;;;;;;3.40;1.90;;;24.90;62.60;;;;;;5075639;28;21408;-91
2022/02/17 07:34:20;;;;;;;4.13;1.70;;;24.80;62.40;;;;;;5075654;28;20839;-85
2022/02/17 07:36:47;;;;;;;3.97;1.87;;;24.80;62.40;;;;;;5075443;28;20863;-85
2022/02/17 07:39:14;;;;;;;5.27;1.77;;;24.80;62.50;;;;;;5075423;28;20448;-87
2022/02/17 07:41:41;;;;;;;5.80;1.60;;;24.80;62.60;;;;;;5082993;28;20441;-90
2022/02/17 07:44:08;;;;;;;6.37;1.93;;;24.80;62.90;;;;;;5095049;28;20464;-85
2022/02/17 07:46:36;;;;;;;3.23;1.90;;;24.80;62.60;;;;;;5095635;28;20436;-84
2022/02/17 07:49:04;;;;;;;2.10;1.50;;;24.90;62.50;;;;;;5092734;28;20452;-83
2022/02/17 07:51:31;;;;;;;2.97;1.30;;;25.00;62.50;;;;;;5080601;28;20488;-83
2022/02/17 07:53:58;;;;;;;2.60;1.60;;;24.90;62.40;;;;;;5090948;28;20436;-87
2022/02/17 07:56:25;;;;;;;4.43;1.70;;;24.90;62.40;;;;;;5094233;28;20440;-84
2022/02/17 07:58:52;;;;;;;5.53;1.80;;;24.90;62.30;;;;;;5094362;28;20450;-88
2022/02/17 08:01:19;;;;;;;3.27;1.37;;;24.90;62.10;;;;;;5094432;28;20440;-83
2022/02/17 08:03:46;;;;;;;4.03;1.20;;;24.90;62.00;;;;;;5094494;28;20922;-83
2022/02/17 08:06:14;;;;;;;9.50;2.40;;;25.00;61.90;;;;;;5095112;28;20432;-83
2022/02/17 08:08:47;;;;;;;3.83;1.57;;;25.00;62.00;;;;;;5095460;28;20427;-87
2022/02/17 08:11:14;;;;;;;3.67;2.13;;;25.00;62.00;;;;;;5095096;28;20533;-83
2022/02/17 08:13:41;;;;;;;4.30;1.97;;;25.00;62.10;;;;;;5094972;28;20446;-83
2022/02/17 08:16:07;;;;;;;4.00;1.80;;;25.00;62.00;;;;;;5093780;28;20432;-88
2022/02/17 08:18:36;;;;;;;2.60;2.03;;;25.10;61.90;;;;;;5094387;28;20830;-82
2022/02/17 08:21:03;;;;;;;3.00;1.60;;;25.20;61.50;;;;;;5094774;28;20534;-82
2022/02/17 08:23:33;;;;;;;4.13;1.90;;;25.20;61.40;;;;;;5094334;28;20934;-82
2022/02/17 08:26:01;;;;;;;3.70;1.80;;;25.30;61.70;;;;;;5075452;28;20480;-83
2022/02/17 08:28:28;;;;;;;8.30;2.07;;;25.40;61.00;;;;;;5075621;28;20506;-83
2022/02/17 08:30:54;;;;;;;5.30;2.10;;;25.40;61.20;;;;;;5079697;28;21240;-82
2022/02/17 08:33:21;;;;;;;4.67;1.90;;;25.50;61.40;;;;;;5074545;28;20445;-88
2022/02/17 08:35:48;;;;;;;6.27;1.77;;;25.40;61.10;;;;;;5074158;28;20437;-83
2022/02/17 08:38:15;;;;;;;5.90;2.20;;;25.30;61.20;;;;;;5074237;28;20433;-81
2022/02/17 08:40:43;;;;;;;10.77;1.87;;;25.40;61.10;;;;;;5074519;28;20919;-83
2022/02/17 08:43:10;;;;;;;8.57;2.30;;;25.30;61.40;;;;;;5073997;28;20433;-87
2022/02/17 08:45:39;;;;;;;8.67;2.40;;;25.30;61.20;;;;;;5073987;28;20927;-82
2022/02/17 08:48:07;;;;;;;6.83;2.20;;;25.30;61.50;;;;;;5073785;28;20444;-83
2022/02/17 08:50:34;;;;;;;7.10;2.23;;;25.30;61.40;;;;;;5074094;28;20437;-82
2022/02/17 08:53:01;;;;;;;6.23;2.50;;;25.20;61.40;;;;;;5084248;28;20484;-83
2022/02/17 08:55:28;;;;;;;12.23;3.07;;;25.30;61.20;;;;;;5069345;28;20433;-82
2022/02/17 08:57:56;;;;;;;9.70;2.30;;;25.40;61.00;;;;;;5073925;28;20437;-82
2022/02/17 09:00:23;;;;;;;8.97;2.10;;;25.70;60.80;;;;;;5073903;28;20448;-83
2022/02/17 09:02:50;;;;;;;6.50;1.80;;;25.90;60.50;;;;;;5073790;28;20447;-83
2022/02/17 09:05:16;;;;;;;12.43;2.23;;;26.00;60.00;;;;;;5076924;28;20807;-88
2022/02/17 09:07:43;;;;;;;19.57;3.43;;;26.00;60.40;;;;;;5093173;28;20451;-87
2022/02/17 09:10:10;;;;;;;15.40;3.40;;;26.00;58.70;;;;;;5091771;28;20931;-88
2022/02/17 09:12:38;;;;;;;6.20;2.87;;;26.00;58.40;;;;;;5093947;28;20490;-81
2022/02/17 09:15:09;;;;;;;10.23;2.80;;;26.30;58.70;;;;;;5093839;28;20938;-83
2022/02/17 09:17:36;;;;;;;11.80;3.10;;;26.70;58.50;;;;;;5093727;28;20483;-81
2022/02/17 09:20:03;;;;;;;5.77;2.30;;;27.30;57.70;;;;;;5093195;28;20962;-80
2022/02/17 09:22:30;;;;;;;19.73;2.63;;;27.80;57.30;;;;;;5092916;28;20451;-80
2022/02/17 09:24:56;;;;;;;9.13;2.93;;;28.20;56.80;;;;;;5093351;28;20442;-80
2022/02/17 09:27:23;;;;;;;7.80;2.83;;;28.60;56.60;;;;;;5075809;28;20447;-81
2022/02/17 09:29:50;;;;;;;9.73;2.60;;;28.80;56.20;;;;;;5093531;28;20443;-80
2022/02/17 09:32:18;;;;;;;6.90;3.20;;;29.10;56.10;;;;;;5093500;28;20490;-81
2022/02/17 09:34:47;;;;;;;10.97;3.00;;;29.10;55.80;;;;;;5093431;28;20444;-87
2022/02/17 09:37:14;;;;;;;8.00;2.50;;;29.00;56.00;;;;;;5093325;28;20448;-82
2022/02/17 09:39:40;;;;;;;11.67;3.13;;;28.70;56.00;;;;;;5092255;28;20439;-81
2022/02/17 09:42:08;;;;;;;8.70;2.00;;;28.50;56.30;;;;;;5092977;28;20447;-81
2022/02/17 09:44:36;;;;;;;6.23;2.10;;;28.20;56.50;;;;;;5093238;28;20510;-81
2022/02/17 09:47:03;;;;;;;5.53;1.70;;;28.10;56.80;;;;;;5092684;28;20930;-81
2022/02/17 09:49:32;;;;;;;5.67;1.87;;;27.80;57.00;;;;;;5093321;28;20539;-81
2022/02/17 09:51:59;;;;;;;3.43;1.80;;;27.60;57.20;;;;;;5093376;28;20475;-89
2022/02/17 09:54:27;;;;;;;6.17;2.20;;;27.40;57.40;;;;;;5093383;28;20448;-81
2022/02/17 09:56:54;;;;;;;9.80;2.13;;;27.30;57.60;;;;;;5093215;28;21323;-81
2022/02/17 09:59:23;;;;;;;7.43;2.30;;;27.20;57.70;;;;;;5091944;28;20437;-85
2022/02/17 10:01:55;;;;;;;5.23;2.27;;;27.10;57.90;;;;;;5093413;28;20965;-89
2022/02/17 10:04:23;;;;;;;4.20;1.80;;;27.00;57.90;;;;;;5093032;28;20440;-88
2022/02/17 10:06:53;;;;;;;11.60;2.27;;;27.00;58.00;;;;;;5092849;28;20438;-84
2022/02/17 10:09:21;;;;;;;4.30;1.80;;;27.10;57.90;;;;;;5093147;28;20435;-83
2022/02/17 10:11:51;;;;;;;8.30;1.97;;;27.30;57.70;;;;;;5093406;28;20980;-88
2022/02/17 10:14:19;;;;;;;5.57;1.90;;;27.70;57.30;;;;;;5093184;28;20848;-83
2022/02/17 10:16:56;;;;;;;6.00;2.00;;;27.80;57.10;;;;;;5093104;28;20541;-83
2022/02/17 10:19:25;;;;;;;5.97;2.27;;;28.00;56.90;;;;;;5092070;28;20502;-83
2022/02/17 10:22:03;;;;;;;3.33;1.77;;;28.00;56.80;;;;;;5092492;28;20444;-82
2022/02/17 10:24:41;;;;;;;7.03;1.83;;;27.90;56.90;;;;;;5092495;28;20443;-87
2022/02/17 10:27:10;;;;;;;4.57;2.00;;;27.70;57.00;;;;;;5092415;28;20451;-83
2022/02/17 10:29:38;;;;;;;9.00;1.87;;;27.70;57.00;;;;;;5092669;28;20436;-88
2022/02/17 10:32:13;;;;;;;6.60;1.77;;;27.60;57.10;;;;;;5092680;28;20487;-82
2022/02/17 10:34:41;;;;;;;6.90;1.93;;;27.50;57.20;;;;;;5092817;28;20834;-82
2022/02/17 10:37:10;;;;;;;4.20;1.67;;;27.40;57.40;;;;;;5092862;28;20443;-82
2022/02/17 10:39:42;;;;;;;6.67;2.07;;;27.30;57.50;;;;;;5094472;28;20438;-89
2022/02/17 10:42:11;;;;;;;4.23;1.70;;;27.20;57.60;;;;;;5096682;28;20494;-83
2022/02/17 10:44:39;;;;;;;2.50;1.57;;;27.10;57.80;;;;;;5096744;28;20449;-82
2022/02/17 10:47:17;;;;;;;3.67;1.60;;;27.10;57.80;;;;;;5096784;28;20440;-82
2022/02/17 10:49:46;;;;;;;3.70;1.47;;;27.30;57.70;;;;;;5096602;28;20867;-82
2022/02/17 10:52:28;;;;;;;3.73;1.67;;;27.50;57.80;;;;;;5096542;28;20467;-82
2022/02/17 10:55:10;;;;;;;2.70;1.83;;;27.60;57.60;;;;;;5096621;28;20440;-83
2022/02/17 10:57:37;;;;;;;4.27;1.60;;;27.50;57.50;;;;;;5096496;28;20439;-83
2022/02/17 11:00:13;;;;;;;6.07;1.70;;;27.40;57.50;;;;;;5096899;28;20440;-82
2022/02/17 11:02:40;;;;;;;4.27;1.37;;;27.30;57.60;;;;;;5096329;28;20435;-83
2022/02/17 11:05:08;;;;;;;2.60;1.37;;;27.30;57.70;;;;;;5090147;28;20438;-88
2022/02/17 11:07:37;;;;;;;1.90;1.53;;;27.20;56.60;;;;;;5096529;28;20435;-82
2022/02/17 11:10:05;;;;;;;7.27;1.83;;;27.20;57.50;;;;;;5096288;28;20435;-82
2022/02/17 11:12:31;;;;;;;5.23;2.03;;;27.10;57.50;;;;;;5086870;28;20468;-82
2022/02/17 11:14:59;;;;;;;3.13;1.50;;;27.10;57.70;;;;;;5075609;28;20808;-88
2022/02/17 11:17:27;;;;;;;2.10;1.40;;;27.10;57.90;;;;;;5075171;28;20596;-87
2022/02/17 11:19:55;;;;;;;3.00;1.43;;;27.00;57.80;;;;;;5075789;28;20461;-89
2022/02/17 11:22:22;;;;;;;4.70;1.80;;;27.00;58.00;;;;;;5075637;28;20443;-80
2022/02/17 11:24:53;;;;;;;4.43;1.57;;;26.90;58.10;;;;;;5075533;28;20527;-80
2022/02/17 11:27:20;;;;;;;5.70;1.47;;;26.90;58.10;;;;;;5075916;28;20441;-81
2022/02/17 11:29:48;;;;;;;3.10;1.33;;;26.90;58.10;;;;;;5075884;28;21041;-81
2022/02/17 11:32:17;;;;;;;3.97;1.40;;;26.90;58.20;;;;;;5075484;28;20979;-82
2022/02/17 11:34:46;;;;;;;3.97;1.97;;;26.90;58.20;;;;;;5077864;28;20564;-89
2022/02/17 11:37:42;;;;;;;3.80;1.50;;;26.90;58.30;;;;;;5080344;28;20444;-84
2022/02/17 11:40:15;;;;;;;5.07;1.87;;;27.00;58.30;;;;;;5076771;28;20493;-82
2022/02/17 11:42:44;;;;;;;5.73;1.60;;;26.90;58.40;;;;;;5055166;28;20481;-82
2022/02/17 11:45:13;;;;;;;2.70;1.10;;;26.90;58.40;;;;;;5088949;28;20440;-82
2022/02/17 11:48:04;;;;;;;4.20;1.97;;;26.90;58.40;;;;;;5067531;28;20460;-82
2022/02/17 11:50:36;;;;;;;3.67;1.37;;;26.90;58.30;;;;;;5041013;28;20464;-88
2022/02/17 11:53:22;;;;;;;3.07;1.63;;;26.90;58.30;;;;;;5056507;28;20844;-89
2022/02/17 11:55:54;;;;;;;4.23;1.77;;;26.90;58.30;;;;;;5059586;28;20448;-81
2022/02/17 11:58:44;;;;;;;3.27;1.60;;;26.90;58.40;;;;;;5066477;28;20444;-86
2022/02/17 12:01:38;;;;;;;5.47;1.50;;;27.00;58.40;;;;;;5063710;28;20437;-88
2022/02/17 12:04:14;;;;;;;1.70;1.10;;;27.00;58.40;;;;;;5061530;28;20498;-85
2022/02/17 12:06:45;;;;;;;3.47;1.60;;;27.10;58.40;;;;;;5063791;28;20445;-89
2022/02/17 12:09:27;;;;;;;5.17;1.77;;;27.20;58.40;;;;;;5087054;28;20436;-90
2022/02/17 12:11:55;;;;;;;1.90;1.70;;;27.30;58.30;;;;;;5088862;28;20439;-82
2022/02/17 12:14:22;;;;;;;1.70;1.40;;;27.30;58.30;;;;;;5094819;28;21029;-90
2022/02/17 12:16:54;;;;;;;2.97;1.50;;;27.30;58.20;;;;;;5086203;28;20954;-84
2022/02/17 12:19:21;;;;;;;2.60;1.77;;;27.40;58.30;;;;;;5091696;28;20488;-88
2022/02/17 12:21:50;;;;;;;2.23;1.60;;;27.30;58.20;;;;;;5091851;28;20450;-88
2022/02/17 12:24:17;;;;;;;4.57;1.80;;;27.30;58.20;;;;;;5088915;28;20443;-87
2022/02/17 12:26:50;;;;;;;1.90;1.30;;;27.20;58.10;;;;;;5073837;28;20449;-87
2022/02/17 12:29:29;;;;;;;2.87;1.80;;;27.20;58.20;;;;;;5062753;28;20432;-87
2022/02/17 12:31:56;;;;;;;3.33;1.80;;;27.20;58.20;;;;;;5068306;28;20438;-87
2022/02/17 12:34:24;;;;;;;2.50;1.30;;;27.10;58.20;;;;;;5068837;28;20480;-87
2022/02/17 12:36:50;;;;;;;2.40;1.67;;;27.10;58.20;;;;;;5073646;28;20447;-88
2022/02/17 12:39:18;;;;;;;2.03;1.50;;;27.10;58.20;;;;;;5074272;28;20799;-88
2022/02/17 12:41:59;;;;;;;3.37;1.70;;;27.00;58.20;;;;;;5074188;28;20795;-82
2022/02/17 12:44:29;;;;;;;3.87;2.30;;;27.00;58.10;;;;;;5074258;28;20444;-82
2022/02/17 12:46:56;;;;;;;9.10;2.50;;;27.00;58.20;;;;;;5074148;28;20762;-82
2022/02/17 12:49:24;;;;;;;2.70;1.43;;;26.90;58.20;;;;;;5067888;28;20471;-92
2022/02/17 12:51:51;;;;;;;2.90;1.30;;;26.90;58.40;;;;;;5054247;28;20445;-95